Time;durP1;ratioP1;P1;durP2;ratioP2;P2;SDS_P1;SDS_P2;PMS_P1;PMS_P2;Temp;Humidity;BMP_temperature;BMP_pressure;BME280_temperature;BME280_humidity;BME280_pressure;Samples;Min_cycle;Max_cycle;Signal;HPM_P1;HPM_P2
2022/08/21 00:01:17;;;;;;;;;;;;;;;;;;5054678;28;1918;-73
2022/08/21 00:03:43;;;;;;;;;;;;;;;;;;5055033;28;1154;-73
2022/08/21 00:06:09;;;;;;;;;;;;;;;;;;5054817;28;1064;-73
2022/08/21 00:08:35;;;;;;;;;;;;;;;;;;5054433;28;1404;-71
2022/08/21 00:11:03;;;;;;;;;;;;;;;;;;5065110;28;1401;-72
2022/08/21 00:13:30;;;;;;;;;;;;;;;;;;5074510;28;1130;-72
2022/08/21 00:15:56;;;;;;;;;;;;;;;;;;5074794;28;1008;-72
2022/08/21 00:18:23;;;;;;;;;;;;;;;;;;5074228;28;1095;-72
2022/08/21 00:20:49;;;;;;;;;;;;;;;;;;5074220;28;1910;-73
2022/08/21 00:23:15;;;;;;;;;;;;;;;;;;5074186;28;1130;-73
2022/08/21 00:25:41;;;;;;;;;;;;;;;;;;5074573;28;1028;-73
2022/08/21 00:28:09;;;;;;;;;;;;;;;;;;5074217;28;973;-72
2022/08/21 00:30:36;;;;;;;;;;;;;;;;;;5056072;28;1394;-72
2022/08/21 00:33:02;;;;;;;;;;;;;;;;;;5074114;28;1138;-72
2022/08/21 00:35:30;;;;;;;;;;;;;;;;;;5074445;28;727;-72
2022/08/21 00:37:56;;;;;;;;;;;;;;;;;;5074210;28;1060;-72
2022/08/21 00:40:23;;;;;;;;;;;;;;;;;;5074132;28;1344;-72
2022/08/21 00:42:50;;;;;;;;;;;;;;;;;;5073908;28;1979;-73
2022/08/21 00:45:18;;;;;;;;;;;;;;;;;;5074203;28;798;-72
2022/08/21 00:47:44;;;;;;;;;;;;;;;;;;5074211;28;929;-72
2022/08/21 00:50:11;;;;;;;;;;;;;;;;;;5073688;28;1339;-72
2022/08/21 00:52:38;;;;;;;;;;;;;;;;;;5073852;28;775;-72
2022/08/21 00:55:04;;;;;;;;;;;;;;;;;;5074269;28;612;-73
2022/08/21 00:57:32;;;;;;;;;;;;;;;;;;5073730;28;1067;-72
2022/08/21 00:59:59;;;;;;;;;;;;;;;;;;5073539;28;1317;-72
2022/08/21 01:02:27;;;;;;;;;;;;;;;;;;5073614;28;1918;-72
2022/08/21 01:04:53;;;;;;;;;;;;;;;;;;5074019;28;978;-72
2022/08/21 01:07:19;;;;;;;;;;;;;;;;;;5073466;28;1079;-73
2022/08/21 01:09:46;;;;;;;;;;;;;;;;;;5073672;28;1352;-73
2022/08/21 01:12:12;;;;;;;;;;;;;;;;;;5073188;28;1009;-72
2022/08/21 01:14:38;;;;;;;;;;;;;;;;;;5073882;28;1119;-72
2022/08/21 01:17:05;;;;;;;;;;;;;;;;;;5073409;28;1111;-72
2022/08/21 01:19:33;;;;;;;;;;;;;;;;;;5073310;28;1442;-72
2022/08/21 01:22:01;;;;;;;;;;;;;;;;;;5073103;28;1982;-71
2022/08/21 01:24:27;;;;;;;;;;;;;;;;;;5073630;28;1098;-72
2022/08/21 01:26:53;;;;;;;;;;;;;;;;;;5073461;28;1130;-72
2022/08/21 01:29:24;;;;;;;;;;;;;;;;;;5073041;28;1324;-71
2022/08/21 01:31:50;;;;;;;;;;;;;;;;;;5055212;28;956;-73
2022/08/21 01:34:16;;;;;;;;;;;;;;;;;;5073244;28;1068;-73
2022/08/21 01:36:43;;;;;;;;;;;;;;;;;;5073272;28;1099;-72
2022/08/21 01:39:10;;;;;;;;;;;;;;;;;;5073177;28;1270;-73
2022/08/21 01:41:36;;;;;;;;;;;;;;;;;;5072748;28;1953;-71
2022/08/21 01:44:03;;;;;;;;;;;;;;;;;;5073144;28;902;-72
2022/08/21 01:46:29;;;;;;;;;;;;;;;;;;5073150;28;944;-72
2022/08/21 01:48:55;;;;;;;;;;;;;;;;;;5073099;28;1323;-72
2022/08/21 01:51:21;;;;;;;;;;;;;;;;;;5072330;28;1067;-71
2022/08/21 01:53:48;;;;;;;;;;;;;;;;;;5072792;28;1359;-73
2022/08/21 01:56:16;;;;;;;;;;;;;;;;;;5072669;28;1232;-73
2022/08/21 01:58:43;;;;;;;;;;;;;;;;;;5072987;28;933;-71
2022/08/21 02:01:10;;;;;;;;;;;;;;;;;;5072181;28;1914;-71
2022/08/21 02:03:36;;;;;;;;;;;;;;;;;;5054604;28;1224;-71
2022/08/21 02:06:02;;;;;;;;;;;;;;;;;;5072575;28;1087;-72
2022/08/21 02:08:28;;;;;;;;;;;;;;;;;;5072702;28;1142;-72
2022/08/21 02:10:55;;;;;;;;;;;;;;;;;;5054517;28;1322;-73
2022/08/21 02:13:22;;;;;;;;;;;;;;;;;;5071917;28;966;-73
2022/08/21 02:15:48;;;;;;;;;;;;;;;;;;5069003;28;1548;-72
2022/08/21 02:18:15;;;;;;;;;;;;;;;;;;5072510;28;727;-72
2022/08/21 02:20:42;;;;;;;;;;;;;;;;;;5053474;28;2034;-72
2022/08/21 02:23:08;;;;;;;;;;;;;;;;;;5074287;28;1984;-73
2022/08/21 02:25:35;;;;;;;;;;;;;;;;;;5083988;28;1145;-72
2022/08/21 02:28:04;;;;;;;;;;;;;;;;;;5092508;28;663;-72
2022/08/21 02:30:32;;;;;;;;;;;;;;;;;;5092555;28;1331;-73
2022/08/21 02:32:59;;;;;;;;;;;;;;;;;;5091771;28;1122;-72
2022/08/21 02:35:25;;;;;;;;;;;;;;;;;;5074225;28;1115;-72
2022/08/21 02:37:52;;;;;;;;;;;;;;;;;;5074463;28;1281;-73
2022/08/21 02:40:19;;;;;;;;;;;;;;;;;;5092291;28;1399;-72
2022/08/21 02:42:46;;;;;;;;;;;;;;;;;;5091916;28;1975;-72
2022/08/21 02:45:12;;;;;;;;;;;;;;;;;;5092179;28;917;-71
2022/08/21 02:47:39;;;;;;;;;;;;;;;;;;5091812;28;1051;-71
2022/08/21 02:50:07;;;;;;;;;;;;;;;;;;5091952;28;1305;-72
2022/08/21 02:52:34;;;;;;;;;;;;;;;;;;5091833;28;1126;-73
2022/08/21 02:55:00;;;;;;;;;;;;;;;;;;5092154;28;1068;-73
2022/08/21 02:59:53;;;;;;;;;;;;;;;;;;5007780;28;1463;-76
2022/08/21 03:02:21;;;;;;;;;;;;;;;;;;5011286;28;1927;-75
2022/08/21 03:04:48;;;;;;;;;;;;;;;;;;5012006;28;1158;-75
2022/08/21 03:07:15;;;;;;;;;;;;;;;;;;5012031;28;1056;-76
2022/08/21 03:09:42;;;;;;;;;;;;;;;;;;5030411;28;1493;-75
2022/08/21 03:12:08;;;;;;;;;;;;;;;;;;5030503;28;1914;-76
2022/08/21 03:14:34;;;;;;;;;;;;;;;;;;5031848;28;1140;-76
2022/08/21 03:17:00;;;;;;;;;;;;;;;;;;5031509;28;933;-75
2022/08/21 03:19:26;;;;;;;;;;;;;;;;;;5031601;28;1294;-75
2022/08/21 03:21:54;;;;;;;;;;;;;;;;;;5031318;28;1021;-76
2022/08/21 03:24:20;;;;;;;;;;;;;;;;;;5031653;28;1079;-76
2022/08/21 03:26:46;;;;;;;;;;;;;;;;;;5031431;28;1124;-75
2022/08/21 03:29:12;;;;;;;;;;;;;;;;;;5031468;28;1383;-74
2022/08/21 03:31:39;;;;;;;;;;;;;;;;;;5030930;28;1918;-75
2022/08/21 03:34:05;;;;;;;;;;;;;;;;;;5031520;28;1080;-76
2022/08/21 03:36:31;;;;;;;;;;;;;;;;;;5031624;28;942;-76
2022/08/21 03:38:59;;;;;;;;;;;;;;;;;;5031551;28;1350;-76
2022/08/21 03:41:25;;;;;;;;;;;;;;;;;;5031076;28;783;-75
2022/08/21 03:43:51;;;;;;;;;;;;;;;;;;5031523;28;1068;-75
2022/08/21 03:46:18;;;;;;;;;;;;;;;;;;5013685;28;1300;-75
2022/08/21 03:48:44;;;;;;;;;;;;;;;;;;5013341;28;1326;-75
2022/08/21 03:51:10;;;;;;;;;;;;;;;;;;5031292;28;1000;-76
2022/08/21 03:53:37;;;;;;;;;;;;;;;;;;5030963;28;1980;-76
2022/08/21 03:56:05;;;;;;;;;;;;;;;;;;5013659;28;1425;-76
2022/08/21 03:58:32;;;;;;;;;;;;;;;;;;5030639;28;1306;-75
2022/08/21 04:00:58;;;;;;;;;;;;;;;;;;5031281;28;828;-76
2022/08/21 04:03:25;;;;;;;;;;;;;;;;;;5030919;28;1099;-76
2022/08/21 04:05:51;;;;;;;;;;;;;;;;;;5031108;28;1064;-76
2022/08/21 04:08:18;;;;;;;;;;;;;;;;;;5013567;28;1324;-76
2022/08/21 04:10:44;;;;;;;;;;;;;;;;;;5031062;28;1020;-75
2022/08/21 04:13:12;;;;;;;;;;;;;;;;;;5030484;28;1906;-75
2022/08/21 04:15:38;;;;;;;;;;;;;;;;;;5012786;28;1471;-74
2022/08/21 04:18:05;;;;;;;;;;;;;;;;;;5031011;28;1313;-76
2022/08/21 04:20:31;;;;;;;;;;;;;;;;;;5031204;28;968;-77
2022/08/21 04:22:57;;;;;;;;;;;;;;;;;;5031330;28;827;-76
2022/08/21 04:25:25;;;;;;;;;;;;;;;;;;5034723;28;1080;-76
2022/08/21 04:27:51;;;;;;;;;;;;;;;;;;5016992;28;1496;-76
2022/08/21 04:30:19;;;;;;;;;;;;;;;;;;5034683;28;1009;-76
2022/08/21 04:32:46;;;;;;;;;;;;;;;;;;5034114;28;1922;-76
2022/08/21 04:35:13;;;;;;;;;;;;;;;;;;5034763;28;803;-77
2022/08/21 04:37:39;;;;;;;;;;;;;;;;;;5016717;28;1328;-76
2022/08/21 04:40:06;;;;;;;;;;;;;;;;;;5034428;28;938;-76
2022/08/21 04:42:33;;;;;;;;;;;;;;;;;;5034112;28;1115;-76
2022/08/21 04:44:59;;;;;;;;;;;;;;;;;;5034412;28;1135;-76
2022/08/21 04:47:26;;;;;;;;;;;;;;;;;;5034136;28;1386;-75
2022/08/21 04:49:52;;;;;;;;;;;;;;;;;;5034047;28;1072;-75
2022/08/21 04:52:20;;;;;;;;;;;;;;;;;;5033916;28;1959;-76
2022/08/21 04:54:46;;;;;;;;;;;;;;;;;;5016635;28;1332;-76
2022/08/21 04:57:12;;;;;;;;;;;;;;;;;;5035005;28;632;-76
2022/08/21 04:59:40;;;;;;;;;;;;;;;;;;5016345;28;1503;-76
2022/08/21 05:02:06;;;;;;;;;;;;;;;;;;5033649;28;1071;-76
2022/08/21 05:04:34;;;;;;;;;;;;;;;;;;5016492;28;1119;-76
2022/08/21 05:07:00;;;;;;;;;;;;;;;;;;5034013;28;799;-76
2022/08/21 05:09:27;;;;;;;;;;;;;;;;;;5033876;28;1338;-76
2022/08/21 05:11:53;;;;;;;;;;;;;;;;;;5033522;28;1060;-76
2022/08/21 05:14:19;;;;;;;;;;;;;;;;;;5016260;28;1263;-76
2022/08/21 05:16:45;;;;;;;;;;;;;;;;;;5030998;28;1436;-76
2022/08/21 05:19:11;;;;;;;;;;;;;;;;;;5020787;28;1498;-75
2022/08/21 05:21:40;;;;;;;;;;;;;;;;;;5022108;28;1442;-75
2022/08/21 05:24:07;;;;;;;;;;;;;;;;;;5029984;28;1151;-75
2022/08/21 05:26:33;;;;;;;;;;;;;;;;;;5031344;28;1389;-76
2022/08/21 05:28:59;;;;;;;;;;;;;;;;;;5022792;28;1709;-75
2022/08/21 05:31:25;;;;;;;;;;;;;;;;;;5026058;28;981;-75
2022/08/21 05:33:51;;;;;;;;;;;;;;;;;;5019171;28;1910;-76
2022/08/21 05:36:18;;;;;;;;;;;;;;;;;;5013064;28;1463;-75
2022/08/21 05:38:45;;;;;;;;;;;;;;;;;;5029548;28;1278;-75
2022/08/21 05:41:11;;;;;;;;;;;;;;;;;;5030296;28;1506;-75
2022/08/21 05:43:38;;;;;;;;;;;;;;;;;;5005177;28;1190;-76
2022/08/21 05:46:04;;;;;;;;;;;;;;;;;;5026688;28;1514;-77
2022/08/21 05:48:30;;;;;;;;;;;;;;;;;;5025461;28;1514;-77
2022/08/21 05:50:56;;;;;;;;;;;;;;;;;;5021976;28;1459;-76
2022/08/21 05:53:23;;;;;;;;;;;;;;;;;;5027966;28;1981;-75
2022/08/21 05:55:51;;;;;;;;;;;;;;;;;;5030785;28;1130;-76
2022/08/21 05:58:19;;;;;;;;;;;;;;;;;;5031070;28;1413;-76
2022/08/21 06:00:47;;;;;;;;;;;;;;;;;;5029643;28;1347;-76
2022/08/21 06:03:13;;;;;;;;;;;;;;;;;;5021886;28;1434;-76
2022/08/21 06:05:39;;;;;;;;;;;;;;;;;;5027224;28;1414;-76
2022/08/21 06:08:05;;;;;;;;;;;;;;;;;;5030801;28;1293;-76
2022/08/21 06:10:32;;;;;;;;;;;;;;;;;;5029584;28;1358;-76
2022/08/21 06:12:59;;;;;;;;;;;;;;;;;;5030104;28;1914;-76
2022/08/21 06:15:25;;;;;;;;;;;;;;;;;;5028523;28;1435;-76
2022/08/21 06:17:52;;;;;;;;;;;;;;;;;;5029434;28;1502;-76
2022/08/21 06:20:19;;;;;;;;;;;;;;;;;;5024429;28;1344;-76
2022/08/21 06:22:45;;;;;;;;;;;;;;;;;;5028399;28;1408;-76
2022/08/21 06:25:11;;;;;;;;;;;;;;;;;;5013273;28;1253;-76
2022/08/21 06:27:37;;;;;;;;;;;;;;;;;;5012263;28;1341;-77
2022/08/21 06:30:06;;;;;;;;;;;;;;;;;;5030272;28;1071;-76
2022/08/21 06:32:32;;;;;;;;;;;;;;;;;;5007977;28;1946;-77
2022/08/21 06:34:58;;;;;;;;;;;;;;;;;;5027425;28;1179;-77
2022/08/21 06:37:24;;;;;;;;;;;;;;;;;;5011338;28;1336;-75
2022/08/21 06:39:51;;;;;;;;;;;;;;;;;;5010545;28;1381;-77
2022/08/21 06:42:17;;;;;;;;;;;;;;;;;;5023979;28;1406;-77
2022/08/21 06:44:44;;;;;;;;;;;;;;;;;;5004182;28;1224;-77
2022/08/21 06:47:12;;;;;;;;;;;;;;;;;;5027003;28;1394;-76
2022/08/21 06:49:38;;;;;;;;;;;;;;;;;;5015830;28;1634;-76
2022/08/21 06:52:04;;;;;;;;;;;;;;;;;;5027062;28;1131;-77
2022/08/21 06:54:31;;;;;;;;;;;;;;;;;;5023970;28;2068;-77
2022/08/21 06:56:57;;;;;;;;;;;;;;;;;;5028273;28;1377;-76
2022/08/21 06:59:23;;;;;;;;;;;;;;;;;;5038868;28;1391;-76
2022/08/21 07:01:50;;;;;;;;;;;;;;;;;;5029532;28;1108;-77
2022/08/21 07:04:18;;;;;;;;;;;;;;;;;;5030833;28;1559;-75
2022/08/21 07:06:44;;;;;;;;;;;;;;;;;;5031676;28;1162;-75
2022/08/21 07:09:10;;;;;;;;;;;;;;;;;;5029094;28;1456;-75
2022/08/21 07:11:36;;;;;;;;;;;;;;;;;;5031168;28;1221;-75
2022/08/21 07:14:03;;;;;;;;;;;;;;;;;;5004460;28;1915;-74
2022/08/21 07:16:29;;;;;;;;;;;;;;;;;;5008449;28;1373;-75
2022/08/21 07:18:55;;;;;;;;;;;;;;;;;;5027556;28;1389;-73
2022/08/21 07:21:23;;;;;;;;;;;;;;;;;;5030762;28;942;-74
2022/08/21 07:23:50;;;;;;;;;;;;;;;;;;5030892;28;906;-75
2022/08/21 07:26:17;;;;;;;;;;;;;;;;;;5031018;28;1130;-75
2022/08/21 07:28:43;;;;;;;;;;;;;;;;;;5013314;28;1403;-75
2022/08/21 07:31:13;;;;;;;;;;;;;;;;;;5030964;28;993;-75
2022/08/21 07:33:39;;;;;;;;;;;;;;;;;;5012531;28;1985;-75
2022/08/21 07:36:06;;;;;;;;;;;;;;;;;;5031542;28;1100;-75
2022/08/21 07:38:33;;;;;;;;;;;;;;;;;;5031617;28;1393;-75
2022/08/21 07:41:01;;;;;;;;;;;;;;;;;;5031379;28;861;-75
2022/08/21 07:43:27;;;;;;;;;;;;;;;;;;5030976;28;913;-75
2022/08/21 07:45:54;;;;;;;;;;;;;;;;;;5031223;28;1146;-75
2022/08/21 07:48:20;;;;;;;;;;;;;;;;;;5031393;28;1375;-74
2022/08/21 07:50:47;;;;;;;;;;;;;;;;;;5031381;28;921;-73
2022/08/21 07:53:13;;;;;;;;;;;;;;;;;;5029484;28;1978;-75
2022/08/21 07:55:40;;;;;;;;;;;;;;;;;;5031207;28;830;-75
2022/08/21 07:58:07;;;;;;;;;;;;;;;;;;5030967;28;1373;-75
2022/08/21 08:00:33;;;;;;;;;;;;;;;;;;5035244;28;854;-75
2022/08/21 08:03:00;;;;;;;;;;;;;;;;;;5034917;28;595;-74
2022/08/21 08:05:28;;;;;;;;;;;;;;;;;;5035310;28;1060;-75
2022/08/21 08:07:55;;;;;;;;;;;;;;;;;;5035076;28;1287;-75
2022/08/21 08:10:21;;;;;;;;;;;;;;;;;;5035164;28;941;-74
2022/08/21 08:12:51;;;;;;;;;;;;;;;;;;5033034;28;1226;-75
2022/08/21 08:15:20;;;;;;;;;;;;;;;;;;5035003;28;1922;-75
2022/08/21 08:17:46;;;;;;;;;;;;;;;;;;5034938;28;1404;-75
2022/08/21 08:20:14;;;;;;;;;;;;;;;;;;5035099;28;1176;-75
2022/08/21 08:22:41;;;;;;;;;;;;;;;;;;5034250;28;779;-75
2022/08/21 08:25:08;;;;;;;;;;;;;;;;;;5034904;28;1095;-75
2022/08/21 08:27:34;;;;;;;;;;;;;;;;;;5034681;28;1415;-75
2022/08/21 08:30:02;;;;;;;;;;;;;;;;;;5034071;28;1602;-75
2022/08/21 08:32:28;;;;;;;;;;;;;;;;;;5033070;28;1508;-74
2022/08/21 08:34:54;;;;;;;;;;;;;;;;;;5034350;28;1910;-75
2022/08/21 08:37:20;;;;;;;;;;;;;;;;;;5016766;28;1361;-74
2022/08/21 08:39:47;;;;;;;;;;;;;;;;;;5034467;28;1068;-74
2022/08/21 08:42:14;;;;;;;;;;;;;;;;;;5033860;28;1076;-75
2022/08/21 08:44:41;;;;;;;;;;;;;;;;;;5034243;28;1407;-75
2022/08/21 08:47:08;;;;;;;;;;;;;;;;;;5034608;28;1281;-75
2022/08/21 08:49:35;;;;;;;;;;;;;;;;;;5034379;28;1400;-75
2022/08/21 08:52:02;;;;;;;;;;;;;;;;;;5033878;28;1186;-74
2022/08/21 08:54:31;;;;;;;;;;;;;;;;;;5016258;28;1918;-75
2022/08/21 08:56:58;;;;;;;;;;;;;;;;;;5035295;28;1468;-75
2022/08/21 08:59:26;;;;;;;;;;;;;;;;;;5053974;28;1381;-75
2022/08/21 09:01:53;;;;;;;;;;;;;;;;;;5036053;28;1592;-74
2022/08/21 09:04:22;;;;;;;;;;;;;;;;;;5054968;28;941;-74
2022/08/21 09:06:52;;;;;;;;;;;;;;;;;;5053911;28;1076;-76
2022/08/21 09:09:23;;;;;;;;;;;;;;;;;;5052845;28;1381;-75
2022/08/21 09:11:49;;;;;;;;;;;;;;;;;;5052323;28;1021;-75
2022/08/21 09:14:17;;;;;;;;;;;;;;;;;;5053834;28;1914;-75
2022/08/21 09:16:47;;;;;;;;;;;;;;;;;;5053661;28;1068;-75
2022/08/21 09:19:16;;;;;;;;;;;;;;;;;;5032074;28;1584;-75
2022/08/21 09:21:46;;;;;;;;;;;;;;;;;;5010281;28;1477;-75
2022/08/21 09:24:19;;;;;;;;;;;;;;;;;;5024672;28;1335;-74
2022/08/21 09:26:46;;;;;;;;;;;;;;;;;;5029333;28;1621;-76
2022/08/21 09:29:12;;;;;;;;;;;;;;;;;;5025165;28;1471;-74
2022/08/21 09:31:40;;;;;;;;;;;;;;;;;;5030071;28;1726;-75
2022/08/21 09:34:07;;;;;;;;;;;;;;;;;;5032631;28;1914;-76
2022/08/21 09:36:38;;;;;;;;;;;;;;;;;;5031477;28;1459;-75
2022/08/21 09:39:05;;;;;;;;;;;;;;;;;;5033075;28;1382;-75
2022/08/21 09:41:33;;;;;;;;;;;;;;;;;;5033245;28;1003;-75
2022/08/21 09:43:59;;;;;;;;;;;;;;;;;;5033687;28;1087;-75
2022/08/21 09:46:26;;;;;;;;;;;;;;;;;;5033180;28;825;-75
2022/08/21 09:48:53;;;;;;;;;;;;;;;;;;5033079;28;1320;-76
2022/08/21 09:51:20;;;;;;;;;;;;;;;;;;5032854;28;866;-74
2022/08/21 09:53:47;;;;;;;;;;;;;;;;;;5031849;28;1965;-75
2022/08/21 09:59:13;;;;;;;;;;;;;;;;;;5022660;28;1587;-74
2022/08/21 10:01:42;;;;;;;;;;;;;;;;;;5032719;28;1138;-75
2022/08/21 10:04:08;;;;;;;;;;;;;;;;;;5017385;28;1289;-75
2022/08/21 10:06:35;;;;;;;;;;;;;;;;;;5013390;28;933;-74
2022/08/21 10:09:05;;;;;;;;;;;;;;;;;;5012381;28;1324;-74
2022/08/21 10:11:33;;;;;;;;;;;;;;;;;;5012894;28;989;-75
2022/08/21 10:14:00;;;;;;;;;;;;;;;;;;5001906;28;1920;-75
2022/08/21 10:16:29;;;;;;;;;;;;;;;;;;5032786;28;1213;-76
2022/08/21 10:18:57;;;;;;;;;;;;;;;;;;5031284;28;1427;-76
2022/08/21 10:21:24;;;;;;;;;;;;;;;;;;5030861;28;1298;-74
2022/08/21 10:23:52;;;;;;;;;;;;;;;;;;5032292;28;1131;-74
2022/08/21 10:26:21;;;;;;;;;;;;;;;;;;5031491;28;1456;-75
2022/08/21 10:29:02;;;;;;;;;;;;;;;;;;5024194;28;1393;-75
2022/08/21 10:31:29;;;;;;;;;;;;;;;;;;5028063;28;1368;-75
2022/08/21 10:33:59;;;;;;;;;;;;;;;;;;5013404;28;1914;-75
2022/08/21 10:36:27;;;;;;;;;;;;;;;;;;5027164;28;1080;-75
2022/08/21 10:38:55;;;;;;;;;;;;;;;;;;5031237;28;1409;-75
2022/08/21 10:41:25;;;;;;;;;;;;;;;;;;5027798;28;1426;-75
2022/08/21 10:43:54;;;;;;;;;;;;;;;;;;5028286;28;1198;-76
2022/08/21 10:46:22;;;;;;;;;;;;;;;;;;5032168;28;1092;-75
2022/08/21 10:48:50;;;;;;;;;;;;;;;;;;5031951;28;1388;-75
2022/08/21 10:51:16;;;;;;;;;;;;;;;;;;5014207;28;914;-75
2022/08/21 10:53:47;;;;;;;;;;;;;;;;;;5030789;28;1966;-75
2022/08/21 10:56:14;;;;;;;;;;;;;;;;;;5010926;28;1229;-75
2022/08/21 10:58:52;;;;;;;;;;;;;;;;;;5001493;28;1487;-75
2022/08/21 11:01:21;;;;;;;;;;;;;;;;;;5031318;28;1363;-74
2022/08/21 11:03:49;;;;;;;;;;;;;;;;;;5031578;28;1365;-73
2022/08/21 11:06:17;;;;;;;;;;;;;;;;;;5026795;28;1441;-76
2022/08/21 11:08:44;;;;;;;;;;;;;;;;;;5022716;28;1884;-75
2022/08/21 11:11:11;;;;;;;;;;;;;;;;;;5027548;28;1801;-75
2022/08/21 11:13:39;;;;;;;;;;;;;;;;;;5017841;28;1396;-75
2022/08/21 11:16:06;;;;;;;;;;;;;;;;;;5022269;28;1914;-76
2022/08/21 11:18:35;;;;;;;;;;;;;;;;;;5031654;28;1449;-75
2022/08/21 11:21:13;;;;;;;;;;;;;;;;;;5031614;28;1071;-74
2022/08/21 11:23:42;;;;;;;;;;;;;;;;;;5031446;28;964;-75
2022/08/21 11:26:09;;;;;;;;;;;;;;;;;;5030169;28;1373;-75
2022/08/21 11:28:36;;;;;;;;;;;;;;;;;;5030222;28;1321;-75
2022/08/21 11:31:05;;;;;;;;;;;;;;;;;;5024266;28;1598;-75
2022/08/21 11:33:38;;;;;;;;;;;;;;;;;;5030423;28;1055;-75
2022/08/21 11:36:07;;;;;;;;;;;;;;;;;;5013813;28;1985;-75
2022/08/21 11:38:35;;;;;;;;;;;;;;;;;;5031205;28;1405;-75
2022/08/21 11:41:09;;;;;;;;;;;;;;;;;;5031431;28;1147;-75
2022/08/21 11:43:39;;;;;;;;;;;;;;;;;;5013403;28;1004;-75
2022/08/21 11:46:11;;;;;;;;;;;;;;;;;;5031376;28;1071;-75
2022/08/21 11:48:44;;;;;;;;;;;;;;;;;;5031208;28;1407;-76
2022/08/21 11:51:11;;;;;;;;;;;;;;;;;;5031427;28;945;-74
2022/08/21 11:53:38;;;;;;;;;;;;;;;;;;5031138;28;1104;-76
2022/08/21 11:56:05;;;;;;;;;;;;;;;;;;5031021;28;1919;-76
2022/08/21 11:58:32;;;;;;;;;;;;;;;;;;5031157;28;1444;-75
2022/08/21 12:00:59;;;;;;;;;;;;;;;;;;5031043;28;1108;-76
2022/08/21 12:03:26;;;;;;;;;;;;;;;;;;5030964;28;1095;-76
2022/08/21 12:05:54;;;;;;;;;;;;;;;;;;5013576;28;1437;-76
2022/08/21 12:08:27;;;;;;;;;;;;;;;;;;5031226;28;1407;-75
2022/08/21 12:11:00;;;;;;;;;;;;;;;;;;5030896;28;1183;-75
2022/08/21 12:13:27;;;;;;;;;;;;;;;;;;5030973;28;941;-75
2022/08/21 12:15:53;;;;;;;;;;;;;;;;;;5013157;28;1914;-75
2022/08/21 12:18:21;;;;;;;;;;;;;;;;;;5013183;28;1413;-75
2022/08/21 12:20:58;;;;;;;;;;;;;;;;;;5031072;28;1107;-75
2022/08/21 12:23:26;;;;;;;;;;;;;;;;;;5030753;28;1060;-75
2022/08/21 12:26:00;;;;;;;;;;;;;;;;;;5030883;28;1076;-75
2022/08/21 12:28:26;;;;;;;;;;;;;;;;;;5031241;28;1329;-76
2022/08/21 12:30:53;;;;;;;;;;;;;;;;;;5030498;28;1527;-76
2022/08/21 12:33:21;;;;;;;;;;;;;;;;;;5031023;28;1190;-77
2022/08/21 12:35:49;;;;;;;;;;;;;;;;;;5022958;28;1894;-75
2022/08/21 12:38:18;;;;;;;;;;;;;;;;;;5026511;28;1408;-76
2022/08/21 12:40:44;;;;;;;;;;;;;;;;;;5013020;28;1248;-76
2022/08/21 12:43:12;;;;;;;;;;;;;;;;;;5027649;28;1357;-76
2022/08/21 12:45:41;;;;;;;;;;;;;;;;;;5022121;28;1403;-76
2022/08/21 12:48:08;;;;;;;;;;;;;;;;;;5011966;28;1483;-75
2022/08/21 12:50:36;;;;;;;;;;;;;;;;;;5032582;28;1369;-76
2022/08/21 12:53:04;;;;;;;;;;;;;;;;;;5031214;28;1296;-75
2022/08/21 12:55:32;;;;;;;;;;;;;;;;;;5032942;28;1910;-75
2022/08/21 12:57:58;;;;;;;;;;;;;;;;;;5033149;28;1428;-75
2022/08/21 13:00:26;;;;;;;;;;;;;;;;;;5033852;28;1311;-76
2022/08/21 13:02:52;;;;;;;;;;;;;;;;;;5033425;28;1212;-76
2022/08/21 13:05:21;;;;;;;;;;;;;;;;;;5031123;28;1392;-76
2022/08/21 13:07:48;;;;;;;;;;;;;;;;;;5033883;28;1380;-75
2022/08/21 13:10:15;;;;;;;;;;;;;;;;;;5025357;28;1457;-76
2022/08/21 13:12:44;;;;;;;;;;;;;;;;;;5033529;28;1116;-76
2022/08/21 13:15:10;;;;;;;;;;;;;;;;;;5031964;28;1981;-76
2022/08/21 13:17:37;;;;;;;;;;;;;;;;;;5024115;28;1451;-76
2022/08/21 13:20:07;;;;;;;;;;;;;;;;;;5033770;28;1235;-77
2022/08/21 13:22:36;;;;;;;;;;;;;;;;;;5023511;28;1231;-77
2022/08/21 13:25:03;;;;;;;;;;;;;;;;;;5032864;28;1593;-76
2022/08/21 13:27:30;;;;;;;;;;;;;;;;;;5015947;28;1577;-77
2022/08/21 13:30:09;;;;;;;;;;;;;;;;;;5026111;28;1408;-77
2022/08/21 13:32:37;;;;;;;;;;;;;;;;;;5029679;28;1248;-76
2022/08/21 13:35:15;;;;;;;;;;;;;;;;;;5032888;28;1968;-77
2022/08/21 13:37:42;;;;;;;;;;;;;;;;;;5030554;28;1469;-77
2022/08/21 13:40:10;;;;;;;;;;;;;;;;;;5024439;28;1421;-78
2022/08/21 13:42:36;;;;;;;;;;;;;;;;;;5033757;28;1179;-78
2022/08/21 13:45:02;;;;;;;;;;;;;;;;;;5034493;28;1068;-78
2022/08/21 13:47:30;;;;;;;;;;;;;;;;;;5034236;28;1434;-77
2022/08/21 13:49:56;;;;;;;;;;;;;;;;;;5034295;28;1115;-78
2022/08/21 13:52:23;;;;;;;;;;;;;;;;;;5026322;28;1514;-78
2022/08/21 13:54:53;;;;;;;;;;;;;;;;;;5025564;28;1914;-77
2022/08/21 13:57:20;;;;;;;;;;;;;;;;;;5024137;28;1309;-77
2022/08/21 13:59:46;;;;;;;;;;;;;;;;;;5028483;28;1455;-78
2022/08/21 14:02:13;;;;;;;;;;;;;;;;;;5035257;28;1258;-78
2022/08/21 14:04:43;;;;;;;;;;;;;;;;;;5019742;28;1457;-78
2022/08/21 14:07:15;;;;;;;;;;;;;;;;;;5033117;28;1337;-77
2022/08/21 14:09:42;;;;;;;;;;;;;;;;;;5019664;28;1450;-77
2022/08/21 14:12:12;;;;;;;;;;;;;;;;;;5034222;28;1198;-78
2022/08/21 14:14:39;;;;;;;;;;;;;;;;;;5028358;28;1460;-79
2022/08/21 14:17:06;;;;;;;;;;;;;;;;;;5015070;28;1983;-78
2022/08/21 14:19:37;;;;;;;;;;;;;;;;;;5034247;28;1444;-78
2022/08/21 14:22:18;;;;;;;;;;;;;;;;;;5035460;28;1162;-78
2022/08/21 14:24:46;;;;;;;;;;;;;;;;;;5028849;28;1631;-77
2022/08/21 14:27:12;;;;;;;;;;;;;;;;;;5032757;28;2057;-77
2022/08/21 14:29:39;;;;;;;;;;;;;;;;;;5017192;28;1320;-78
2022/08/21 14:32:09;;;;;;;;;;;;;;;;;;5032809;28;1351;-77
2022/08/21 14:34:36;;;;;;;;;;;;;;;;;;5030086;28;1427;-77
2022/08/21 14:37:02;;;;;;;;;;;;;;;;;;5029389;28;2045;-77
2022/08/21 14:39:28;;;;;;;;;;;;;;;;;;5031315;28;1362;-77
2022/08/21 14:41:56;;;;;;;;;;;;;;;;;;5031643;28;1179;-77
2022/08/21 14:44:22;;;;;;;;;;;;;;;;;;5019538;28;1580;-77
2022/08/21 14:46:48;;;;;;;;;;;;;;;;;;5021930;28;1449;-76
2022/08/21 14:49:14;;;;;;;;;;;;;;;;;;5025108;28;1478;-76
2022/08/21 14:51:40;;;;;;;;;;;;;;;;;;5026321;28;1175;-76
2022/08/21 14:54:07;;;;;;;;;;;;;;;;;;5023433;28;1409;-76
2022/08/21 14:56:33;;;;;;;;;;;;;;;;;;5014035;28;1907;-75
2022/08/21 14:59:01;;;;;;;;;;;;;;;;;;5024212;28;1431;-76
2022/08/21 15:01:28;;;;;;;;;;;;;;;;;;5026120;28;1599;-76
2022/08/21 15:03:54;;;;;;;;;;;;;;;;;;5005065;28;1468;-76
2022/08/21 15:06:20;;;;;;;;;;;;;;;;;;5022513;28;1487;-75
2022/08/21 15:08:47;;;;;;;;;;;;;;;;;;5031145;28;1361;-76
2022/08/21 15:11:13;;;;;;;;;;;;;;;;;;5025452;28;1430;-73
2022/08/21 15:13:40;;;;;;;;;;;;;;;;;;5030148;28;1231;-75
2022/08/21 15:16:08;;;;;;;;;;;;;;;;;;5030644;28;1969;-75
2022/08/21 15:18:34;;;;;;;;;;;;;;;;;;5021310;28;1334;-75
2022/08/21 15:21:00;;;;;;;;;;;;;;;;;;5030812;28;1306;-75
2022/08/21 15:23:26;;;;;;;;;;;;;;;;;;5028558;28;1420;-73
2022/08/21 15:25:52;;;;;;;;;;;;;;;;;;5030175;28;1317;-74
2022/08/21 15:28:20;;;;;;;;;;;;;;;;;;5017829;28;1410;-73
2022/08/21 15:30:46;;;;;;;;;;;;;;;;;;5026230;28;1527;-75
2022/08/21 15:33:14;;;;;;;;;;;;;;;;;;5031077;28;1206;-75
2022/08/21 15:35:40;;;;;;;;;;;;;;;;;;5031457;28;1968;-75
2022/08/21 15:38:06;;;;;;;;;;;;;;;;;;5028733;28;1655;-75
2022/08/21 15:40:32;;;;;;;;;;;;;;;;;;5020552;28;1335;-77
2022/08/21 15:42:59;;;;;;;;;;;;;;;;;;5003389;28;1291;-77
2022/08/21 15:45:26;;;;;;;;;;;;;;;;;;5030909;28;1298;-75
2022/08/21 15:47:52;;;;;;;;;;;;;;;;;;5031269;28;1387;-75
2022/08/21 15:50:20;;;;;;;;;;;;;;;;;;5030857;28;1480;-74
2022/08/21 15:52:46;;;;;;;;;;;;;;;;;;5021406;28;1504;-75
2022/08/21 15:55:12;;;;;;;;;;;;;;;;;;5046008;22;4248;-73
2022/08/21 15:57:39;;;;;;;;;;;;;;;;;;5064785;28;1963;-73
2022/08/21 16:00:11;;;;;;;;;;;;;;;;;;5060425;28;1419;-72
2022/08/21 16:02:40;;;;;;;;;;;;;;;;;;5066070;28;1353;-73
2022/08/21 16:05:07;;;;;;;;;;;;;;;;;;5033579;28;1299;-74
2022/08/21 16:07:34;;;;;;;;;;;;;;;;;;5070187;28;1470;-73
2022/08/21 16:10:02;;;;;;;;;;;;;;;;;;5081504;28;1123;-73
2022/08/21 16:12:30;;;;;;;;;;;;;;;;;;5070955;28;834;-73
2022/08/21 16:14:56;;;;;;;;;;;;;;;;;;5076945;28;1637;-72
2022/08/21 16:17:23;;;;;;;;;;;;;;;;;;5085955;28;1906;-73
2022/08/21 16:19:49;;;;;;;;;;;;;;;;;;5077231;28;1153;-73
2022/08/21 16:22:15;;;;;;;;;;;;;;;;;;5065198;28;1567;-72
2022/08/21 16:24:42;;;;;;;;;;;;;;;;;;5081858;28;1317;-72
2022/08/21 16:27:09;;;;;;;;;;;;;;;;;;5061573;28;1525;-74
2022/08/21 16:29:36;;;;;;;;;;;;;;;;;;5084090;28;1482;-73
2022/08/21 16:32:02;;;;;;;;;;;;;;;;;;5075245;28;1434;-73
2022/08/21 16:34:28;;;;;;;;;;;;;;;;;;5057909;28;1554;-73
2022/08/21 16:36:54;;;;;;;;;;;;;;;;;;5074736;28;1910;-73
2022/08/21 16:39:21;;;;;;;;;;;;;;;;;;5082399;28;1166;-73
2022/08/21 16:41:48;;;;;;;;;;;;;;;;;;5092253;28;1071;-74
2022/08/21 16:44:15;;;;;;;;;;;;;;;;;;5092618;28;873;-73
2022/08/21 16:46:41;;;;;;;;;;;;;;;;;;5087732;28;1592;-72
2022/08/21 16:49:08;;;;;;;;;;;;;;;;;;5081626;28;1362;-73
2022/08/21 16:51:35;;;;;;;;;;;;;;;;;;5065406;28;1226;-72
2022/08/21 16:54:01;;;;;;;;;;;;;;;;;;5090751;28;1161;-73
2022/08/21 16:56:28;;;;;;;;;;;;;;;;;;5089216;28;1910;-73
2022/08/21 16:58:55;;;;;;;;;;;;;;;;;;5089255;28;1380;-73
2022/08/21 17:01:23;;;;;;;;;;;;;;;;;;5075491;28;1308;-73
2022/08/21 17:03:50;;;;;;;;;;;;;;;;;;5053858;28;1120;-72
2022/08/21 17:06:17;;;;;;;;;;;;;;;;;;5054014;28;1444;-72
2022/08/21 17:08:43;;;;;;;;;;;;;;;;;;5053476;28;1136;-72
2022/08/21 17:11:11;;;;;;;;;;;;;;;;;;5059058;28;1461;-72